sensor_id;sensor_type;location;lat;lon;timestamp;pressure;altitude;pressure_sealevel;temperature;humidity
59103;BME280;43999;51.660;5.616;2022-09-09T00:02:28;100609.34;;;13.68;100.00
59103;BME280;43999;51.660;5.616;2022-09-09T00:10:36;100595.06;;;13.59;100.00
59103;BME280;43999;51.660;5.616;2022-09-09T00:13:25;100597.91;;;13.56;100.00
59103;BME280;43999;51.660;5.616;2022-09-09T00:16:40;100595.50;;;13.53;100.00
59103;BME280;43999;51.660;5.616;2022-09-09T00:23:42;100585.38;;;13.47;100.00
59103;BME280;43999;51.660;5.616;2022-09-09T00:26:48;100596.03;;;13.45;100.00
59103;BME280;43999;51.660;5.616;2022-09-09T00:29:43;100591.81;;;13.42;100.00
59103;BME280;43999;51.660;5.616;2022-09-09T00:32:18;100586.97;;;13.36;100.00
59103;BME280;43999;51.660;5.616;2022-09-09T00:35:01;100593.16;;;13.35;100.00
59103;BME280;43999;51.660;5.616;2022-09-09T00:37:53;100587.06;;;13.35;100.00
59103;BME280;43999;51.660;5.616;2022-09-09T00:40:37;100585.38;;;13.34;100.00
59103;BME280;43999;51.660;5.616;2022-09-09T00:43:32;100583.63;;;13.34;100.00
59103;BME280;43999;51.660;5.616;2022-09-09T00:55:21;100560.53;;;13.25;100.00
59103;BME280;43999;51.660;5.616;2022-09-09T00:57:52;100562.19;;;13.26;100.00
59103;BME280;43999;51.660;5.616;2022-09-09T01:00:24;100572.00;;;13.24;100.00
59103;BME280;43999;51.660;5.616;2022-09-09T01:06:01;100558.00;;;13.23;100.00
59103;BME280;43999;51.660;5.616;2022-09-09T01:09:08;100560.84;;;13.20;100.00
59103;BME280;43999;51.660;5.616;2022-09-09T01:12:01;100557.47;;;13.18;100.00
59103;BME280;43999;51.660;5.616;2022-09-09T01:17:30;100563.81;;;13.16;100.00
59103;BME280;43999;51.660;5.616;2022-09-09T01:23:16;100579.69;;;13.14;100.00
59103;BME280;43999;51.660;5.616;2022-09-09T01:26:36;100573.72;;;13.12;100.00
59103;BME280;43999;51.660;5.616;2022-09-09T01:29:19;100561.59;;;13.09;100.00
59103;BME280;43999;51.660;5.616;2022-09-09T01:31:58;100569.50;;;13.09;100.00
59103;BME280;43999;51.660;5.616;2022-09-09T01:34:33;100559.38;;;13.03;100.00
59103;BME280;43999;51.660;5.616;2022-09-09T01:37:11;100559.28;;;13.05;100.00
59103;BME280;43999;51.660;5.616;2022-09-09T01:39:43;100556.56;;;13.06;100.00
59103;BME280;43999;51.660;5.616;2022-09-09T01:42:16;100551.28;;;13.06;100.00
59103;BME280;43999;51.660;5.616;2022-09-09T01:44:45;100549.59;;;13.05;100.00
59103;BME280;43999;51.660;5.616;2022-09-09T01:47:12;100561.81;;;13.06;100.00
59103;BME280;43999;51.660;5.616;2022-09-09T01:50:13;100556.56;;;13.06;100.00
59103;BME280;43999;51.660;5.616;2022-09-09T01:52:55;100554.53;;;13.10;100.00
59103;BME280;43999;51.660;5.616;2022-09-09T01:55:38;100543.50;;;13.05;100.00
59103;BME280;43999;51.660;5.616;2022-09-09T01:58:23;100545.91;;;13.08;100.00
59103;BME280;43999;51.660;5.616;2022-09-09T02:04:22;100539.94;;;13.06;100.00
59103;BME280;43999;51.660;5.616;2022-09-09T02:07:42;100546.13;;;13.05;100.00
59103;BME280;43999;51.660;5.616;2022-09-09T02:11:15;100544.22;;;13.07;100.00
59103;BME280;43999;51.660;5.616;2022-09-09T02:14:18;100531.94;;;13.07;100.00
59103;BME280;43999;51.660;5.616;2022-09-09T02:17:31;100532.88;;;13.06;100.00
59103;BME280;43999;51.660;5.616;2022-09-09T02:20:19;100530.34;;;13.05;100.00
59103;BME280;43999;51.660;5.616;2022-09-09T02:22:56;100535.41;;;13.08;100.00
59103;BME280;43999;51.660;5.616;2022-09-09T02:25:28;100536.13;;;13.10;100.00
59103;BME280;43999;51.660;5.616;2022-09-09T02:28:09;100524.78;;;13.09;100.00
59103;BME280;43999;51.660;5.616;2022-09-09T02:30:42;100526.56;;;13.09;100.00
59103;BME280;43999;51.660;5.616;2022-09-09T02:33:16;100520.34;;;13.10;100.00
59103;BME280;43999;51.660;5.616;2022-09-09T02:35:48;100524.66;;;13.11;100.00
59103;BME280;43999;51.660;5.616;2022-09-09T02:38:21;100521.31;;;13.09;100.00
59103;BME280;43999;51.660;5.616;2022-09-09T02:41:05;100535.19;;;13.11;100.00
59103;BME280;43999;51.660;5.616;2022-09-09T02:43:34;100535.91;;;13.13;100.00
59103;BME280;43999;51.660;5.616;2022-09-09T02:49:18;100529.31;;;13.07;100.00
59103;BME280;43999;51.660;5.616;2022-09-09T02:52:04;100528.03;;;13.13;100.00
59103;BME280;43999;51.660;5.616;2022-09-09T02:54:38;100536.88;;;13.12;100.00
59103;BME280;43999;51.660;5.616;2022-09-09T02:57:21;100531.63;;;13.12;100.00
59103;BME280;43999;51.660;5.616;2022-09-09T02:59:57;100535.19;;;13.11;100.00
59103;BME280;43999;51.660;5.616;2022-09-09T03:02:25;100545.81;;;13.09;100.00
59103;BME280;43999;51.660;5.616;2022-09-09T03:04:59;100541.38;;;13.10;100.00
59103;BME280;43999;51.660;5.616;2022-09-09T03:07:26;100543.09;;;13.11;100.00
59103;BME280;43999;51.660;5.616;2022-09-09T03:09:55;100540.44;;;13.11;100.00
59103;BME280;43999;51.660;5.616;2022-09-09T03:12:25;100537.81;;;13.11;100.00
59103;BME280;43999;51.660;5.616;2022-09-09T03:14:52;100540.34;;;13.13;100.00
59103;BME280;43999;51.660;5.616;2022-09-09T03:17:20;100542.13;;;13.12;100.00
59103;BME280;43999;51.660;5.616;2022-09-09T03:19:52;100532.25;;;13.16;100.00
59103;BME280;43999;51.660;5.616;2022-09-09T03:22:21;100532.97;;;13.18;100.00
59103;BME280;43999;51.660;5.616;2022-09-09T03:24:49;100531.16;;;13.18;100.00
59103;BME280;43999;51.660;5.616;2022-09-09T03:27:17;100539.06;;;13.18;100.00
59103;BME280;43999;51.660;5.616;2022-09-09T03:29:46;100531.06;;;13.20;100.00
59103;BME280;43999;51.660;5.616;2022-09-09T03:32:19;100532.75;;;13.21;100.00
59103;BME280;43999;51.660;5.616;2022-09-09T03:34:49;100537.91;;;13.22;100.00
59103;BME280;43999;51.660;5.616;2022-09-09T03:37:17;100538.00;;;13.21;100.00
59103;BME280;43999;51.660;5.616;2022-09-09T03:39:49;100541.47;;;13.21;100.00
59103;BME280;43999;51.660;5.616;2022-09-09T03:42:18;100538.00;;;13.21;100.00
59103;BME280;43999;51.660;5.616;2022-09-09T03:44:48;100544.97;;;13.22;100.00
59103;BME280;43999;51.660;5.616;2022-09-09T03:47:21;100539.69;;;13.22;100.00
59103;BME280;43999;51.660;5.616;2022-09-09T03:49:51;100543.78;;;13.26;100.00
59103;BME280;43999;51.660;5.616;2022-09-09T03:52:18;100547.91;;;13.30;100.00
59103;BME280;43999;51.660;5.616;2022-09-09T03:54:51;100537.38;;;13.30;100.00
59103;BME280;43999;51.660;5.616;2022-09-09T03:57:20;100549.41;;;13.34;100.00
59103;BME280;43999;51.660;5.616;2022-09-09T03:59:49;100540.66;;;13.34;100.00
59103;BME280;43999;51.660;5.616;2022-09-09T04:02:19;100544.88;;;13.36;100.00
59103;BME280;43999;51.660;5.616;2022-09-09T04:04:47;100541.19;;;13.39;100.00
59103;BME280;43999;51.660;5.616;2022-09-09T04:07:15;100535.91;;;13.39;100.00
59103;BME280;43999;51.660;5.616;2022-09-09T04:09:43;100527.91;;;13.40;100.00
59103;BME280;43999;51.660;5.616;2022-09-09T04:12:10;100525.06;;;13.43;100.00
59103;BME280;43999;51.660;5.616;2022-09-09T04:14:40;100526.00;;;13.42;100.00
59103;BME280;43999;51.660;5.616;2022-09-09T04:17:07;100529.25;;;13.46;100.00
59103;BME280;43999;51.660;5.616;2022-09-09T04:19:35;100530.72;;;13.50;100.00
59103;BME280;43999;51.660;5.616;2022-09-09T04:22:03;100524.75;;;13.48;100.00
59103;BME280;43999;51.660;5.616;2022-09-09T04:24:32;100524.53;;;13.51;100.00
59103;BME280;43999;51.660;5.616;2022-09-09T04:27:00;100521.03;;;13.51;100.00
59103;BME280;43999;51.660;5.616;2022-09-09T04:29:27;100515.66;;;13.52;100.00
59103;BME280;43999;51.660;5.616;2022-09-09T04:31:55;100522.63;;;13.53;100.00
59103;BME280;43999;51.660;5.616;2022-09-09T04:34:23;100519.88;;;13.55;100.00
59103;BME280;43999;51.660;5.616;2022-09-09T04:36:50;100529.25;;;13.59;100.00
59103;BME280;43999;51.660;5.616;2022-09-09T04:39:18;100522.06;;;13.61;100.00
59103;BME280;43999;51.660;5.616;2022-09-09T04:41:46;100511.44;;;13.62;100.00
59103;BME280;43999;51.660;5.616;2022-09-09T04:44:14;100514.88;;;13.63;100.00
59103;BME280;43999;51.660;5.616;2022-09-09T04:46:42;100516.81;;;13.61;100.00
59103;BME280;43999;51.660;5.616;2022-09-09T04:49:10;100510.47;;;13.63;100.00
59103;BME280;43999;51.660;5.616;2022-09-09T04:51:42;100506.88;;;13.65;100.00
59103;BME280;43999;51.660;5.616;2022-09-09T04:54:09;100509.28;;;13.68;100.00
59103;BME280;43999;51.660;5.616;2022-09-09T04:56:40;100509.47;;;13.77;100.00
59103;BME280;43999;51.660;5.616;2022-09-09T04:59:10;100508.63;;;13.77;100.00
59103;BME280;43999;51.660;5.616;2022-09-09T05:01:44;100513.78;;;13.78;100.00
59103;BME280;43999;51.660;5.616;2022-09-09T05:04:12;100514.63;;;13.79;100.00
59103;BME280;43999;51.660;5.616;2022-09-09T05:06:43;100511.91;;;13.80;100.00
59103;BME280;43999;51.660;5.616;2022-09-09T05:09:11;100509.16;;;13.82;100.00
59103;BME280;43999;51.660;5.616;2022-09-09T05:11:38;100508.28;;;13.81;100.00
59103;BME280;43999;51.660;5.616;2022-09-09T05:14:16;100509.16;;;13.82;100.00
59103;BME280;43999;51.660;5.616;2022-09-09T05:16:45;100503.13;;;13.80;100.00
59103;BME280;43999;51.660;5.616;2022-09-09T05:19:14;100503.78;;;13.84;100.00
59103;BME280;43999;51.660;5.616;2022-09-09T05:21:44;100496.09;;;13.80;100.00
59103;BME280;43999;51.660;5.616;2022-09-09T05:24:17;100498.41;;;13.85;100.00
59103;BME280;43999;51.660;5.616;2022-09-09T05:26:46;100494.78;;;13.86;100.00
59103;BME280;43999;51.660;5.616;2022-09-09T05:29:15;100501.75;;;13.87;100.00
59103;BME280;43999;51.660;5.616;2022-09-09T05:31:49;100504.16;;;13.90;100.00
59103;BME280;43999;51.660;5.616;2022-09-09T05:34:19;100502.47;;;13.89;100.00
59103;BME280;43999;51.660;5.616;2022-09-09T05:37:04;100493.97;;;13.86;100.00
59103;BME280;43999;51.660;5.616;2022-09-09T05:39:32;100492.91;;;13.88;100.00
59103;BME280;43999;51.660;5.616;2022-09-09T05:41:59;100493.84;;;13.87;100.00
59103;BME280;43999;51.660;5.616;2022-09-09T05:44:28;100497.41;;;13.86;100.00
59103;BME280;43999;51.660;5.616;2022-09-09T05:46:56;100493.63;;;13.90;100.00
59103;BME280;43999;51.660;5.616;2022-09-09T05:49:24;100488.34;;;13.90;100.00
59103;BME280;43999;51.660;5.616;2022-09-09T05:51:52;100493.50;;;13.92;100.00
59103;BME280;43999;51.660;5.616;2022-09-09T05:54:20;100492.56;;;13.93;100.00
59103;BME280;43999;51.660;5.616;2022-09-09T05:56:50;100499.84;;;13.89;100.00
59103;BME280;43999;51.660;5.616;2022-09-09T05:59:19;100489.28;;;13.89;100.00
59103;BME280;43999;51.660;5.616;2022-09-09T06:01:49;100511.00;;;13.93;100.00
59103;BME280;43999;51.660;5.616;2022-09-09T06:04:24;100514.56;;;13.92;100.00
59103;BME280;43999;51.660;5.616;2022-09-09T06:06:52;100515.19;;;13.95;100.00
59103;BME280;43999;51.660;5.616;2022-09-09T06:09:21;100514.84;;;14.00;100.00
59103;BME280;43999;51.660;5.616;2022-09-09T06:11:49;100518.84;;;14.06;100.00
59103;BME280;43999;51.660;5.616;2022-09-09T06:14:18;100517.78;;;14.08;100.00
59103;BME280;43999;51.660;5.616;2022-09-09T06:16:48;100523.88;;;14.09;100.00
59103;BME280;43999;51.660;5.616;2022-09-09T06:19:21;100526.19;;;14.13;100.00
59103;BME280;43999;51.660;5.616;2022-09-09T06:21:51;100520.91;;;14.13;100.00
59103;BME280;43999;51.660;5.616;2022-09-09T06:24:18;100518.16;;;14.15;100.00
59103;BME280;43999;51.660;5.616;2022-09-09T06:26:49;100511.84;;;14.18;100.00
59103;BME280;43999;51.660;5.616;2022-09-09T06:29:21;100508.09;;;14.20;100.00
59103;BME280;43999;51.660;5.616;2022-09-09T06:31:50;100503.25;;;14.27;100.00
59103;BME280;43999;51.660;5.616;2022-09-09T06:34:21;100506.47;;;14.30;100.00
59103;BME280;43999;51.660;5.616;2022-09-09T06:36:58;100509.47;;;14.37;100.00
59103;BME280;43999;51.660;5.616;2022-09-09T06:39:32;100510.94;;;14.41;100.00
59103;BME280;43999;51.660;5.616;2022-09-09T06:42:00;100515.88;;;14.46;100.00
59103;BME280;43999;51.660;5.616;2022-09-09T06:44:45;100510.00;;;14.53;100.00
59103;BME280;43999;51.660;5.616;2022-09-09T06:47:21;100511.75;;;14.66;100.00
59103;BME280;43999;51.660;5.616;2022-09-09T06:49:48;100510.66;;;14.68;100.00
59103;BME280;43999;51.660;5.616;2022-09-09T06:52:16;100512.47;;;14.79;100.00
59103;BME280;43999;51.660;5.616;2022-09-09T06:54:46;100508.53;;;14.85;100.00
59103;BME280;43999;51.660;5.616;2022-09-09T06:57:15;100515.50;;;14.86;100.00
59103;BME280;43999;51.660;5.616;2022-09-09T07:00:05;100508.53;;;14.85;100.00
59103;BME280;43999;51.660;5.616;2022-09-09T07:02:33;100509.13;;;14.88;100.00
59103;BME280;43999;51.660;5.616;2022-09-09T07:05:07;100499.19;;;14.92;100.00
59103;BME280;43999;51.660;5.616;2022-09-09T07:07:35;100498.72;;;14.98;100.00
59103;BME280;43999;51.660;5.616;2022-09-09T07:10:04;100502.66;;;15.04;100.00
59103;BME280;43999;51.660;5.616;2022-09-09T07:12:32;100505.19;;;15.05;100.00
59103;BME280;43999;51.660;5.616;2022-09-09T07:15:00;100502.19;;;15.10;100.00
59103;BME280;43999;51.660;5.616;2022-09-09T07:17:27;100501.56;;;15.18;100.00
59103;BME280;43999;51.660;5.616;2022-09-09T07:19:57;100508.88;;;15.26;100.00
59103;BME280;43999;51.660;5.616;2022-09-09T07:22:25;100503.88;;;15.34;100.00
59103;BME280;43999;51.660;5.616;2022-09-09T07:24:55;100517.28;;;15.42;100.00
59103;BME280;43999;51.660;5.616;2022-09-09T07:27:23;100511.72;;;15.56;100.00
59103;BME280;43999;51.660;5.616;2022-09-09T07:29:51;100500.44;;;15.66;100.00
59103;BME280;43999;51.660;5.616;2022-09-09T07:32:20;100501.50;;;15.74;100.00
59103;BME280;43999;51.660;5.616;2022-09-09T07:34:48;100502.31;;;15.86;100.00
59103;BME280;43999;51.660;5.616;2022-09-09T07:37:17;100503.94;;;15.99;100.00
59103;BME280;43999;51.660;5.616;2022-09-09T07:39:45;100509.66;;;16.15;100.00
59103;BME280;43999;51.660;5.616;2022-09-09T07:42:13;100505.31;;;16.25;100.00
59103;BME280;43999;51.660;5.616;2022-09-09T07:44:43;100502.53;;;16.27;100.00
59103;BME280;43999;51.660;5.616;2022-09-09T07:47:13;100502.47;;;16.38;100.00
59103;BME280;43999;51.660;5.616;2022-09-09T07:49:44;100512.22;;;16.38;100.00
59103;BME280;43999;51.660;5.616;2022-09-09T07:52:19;100518.59;;;16.35;100.00
59103;BME280;43999;51.660;5.616;2022-09-09T07:54:51;100509.56;;;16.38;100.00
59103;BME280;43999;51.660;5.616;2022-09-09T07:57:19;100506.78;;;16.39;100.00
59103;BME280;43999;51.660;5.616;2022-09-09T07:59:49;100515.63;;;16.49;100.00
59103;BME280;43999;51.660;5.616;2022-09-09T08:02:17;100515.88;;;16.46;100.00
59103;BME280;43999;51.660;5.616;2022-09-09T08:04:45;100509.75;;;16.46;100.00
59103;BME280;43999;51.660;5.616;2022-09-09T08:07:14;100515.50;;;16.51;100.00
59103;BME280;43999;51.660;5.616;2022-09-09T08:09:49;100518.47;;;16.58;100.00
59103;BME280;43999;51.660;5.616;2022-09-09T08:12:24;100521.69;;;16.61;100.00
59103;BME280;43999;51.660;5.616;2022-09-09T08:14:51;100518.34;;;16.59;100.00
59103;BME280;43999;51.660;5.616;2022-09-09T08:17:24;100519.88;;;16.62;100.00
59103;BME280;43999;51.660;5.616;2022-09-09T08:19:52;100524.91;;;16.65;100.00
59103;BME280;43999;51.660;5.616;2022-09-09T08:22:24;100516.56;;;16.70;100.00
59103;BME280;43999;51.660;5.616;2022-09-09T08:24:52;100524.13;;;16.74;100.00
59103;BME280;43999;51.660;5.616;2022-09-09T08:27:19;100516.78;;;16.78;100.00
59103;BME280;43999;51.660;5.616;2022-09-09T08:29:47;100523.34;;;16.83;100.00
59103;BME280;43999;51.660;5.616;2022-09-09T08:32:14;100520.69;;;16.83;100.00
59103;BME280;43999;51.660;5.616;2022-09-09T08:34:44;100532.13;;;16.84;100.00
59103;BME280;43999;51.660;5.616;2022-09-09T08:37:19;100519.88;;;16.83;100.00
59103;BME280;43999;51.660;5.616;2022-09-09T08:39:47;100528.75;;;16.82;100.00
59103;BME280;43999;51.660;5.616;2022-09-09T08:42:41;100533.50;;;16.78;100.00
59103;BME280;43999;51.660;5.616;2022-09-09T08:45:29;100533.88;;;16.74;100.00
59103;BME280;43999;51.660;5.616;2022-09-09T08:51:06;100539.94;;;16.85;100.00
59103;BME280;43999;51.660;5.616;2022-09-09T08:53:46;100538.78;;;16.78;100.00
59103;BME280;43999;51.660;5.616;2022-09-09T08:56:21;100549.22;;;16.80;100.00
59103;BME280;43999;51.660;5.616;2022-09-09T08:58:57;100548.28;;;16.81;100.00
59103;BME280;43999;51.660;5.616;2022-09-09T09:10:36;100547.53;;;16.90;100.00
59103;BME280;43999;51.660;5.616;2022-09-09T09:14:03;100553.94;;;16.97;100.00
59103;BME280;43999;51.660;5.616;2022-09-09T09:17:03;100550.47;;;16.97;100.00
59103;BME280;43999;51.660;5.616;2022-09-09T09:19:36;100551.69;;;16.93;100.00
59103;BME280;43999;51.660;5.616;2022-09-09T09:22:21;100545.97;;;16.88;100.00
59103;BME280;43999;51.660;5.616;2022-09-09T09:25:38;100552.56;;;16.82;100.00
59103;BME280;43999;51.660;5.616;2022-09-09T09:28:17;100550.19;;;16.79;100.00
59103;BME280;43999;51.660;5.616;2022-09-09T09:31:05;100556.91;;;16.83;100.00
59103;BME280;43999;51.660;5.616;2022-09-09T09:33:51;100547.78;;;16.87;100.00
59103;BME280;43999;51.660;5.616;2022-09-09T09:36:42;100551.50;;;16.84;100.00
59103;BME280;43999;51.660;5.616;2022-09-09T09:39:27;100551.75;;;16.81;100.00
59103;BME280;43999;51.660;5.616;2022-09-09T09:42:17;100554.59;;;16.90;100.00
59103;BME280;43999;51.660;5.616;2022-09-09T09:44:50;100544.22;;;16.98;100.00
59103;BME280;43999;51.660;5.616;2022-09-09T09:47:22;100545.09;;;17.08;100.00
59103;BME280;43999;51.660;5.616;2022-09-09T09:50:01;100549.47;;;17.19;100.00
59103;BME280;43999;51.660;5.616;2022-09-09T09:52:35;100545.00;;;17.19;100.00
59103;BME280;43999;51.660;5.616;2022-09-09T09:55:05;100538.50;;;17.33;100.00
59103;BME280;43999;51.660;5.616;2022-09-09T09:57:44;100548.00;;;17.36;100.00
59103;BME280;43999;51.660;5.616;2022-09-09T10:00:22;100542.16;;;17.42;100.00
59103;BME280;43999;51.660;5.616;2022-09-09T10:03:00;100547.19;;;17.45;100.00
59103;BME280;43999;51.660;5.616;2022-09-09T10:05:32;100545.41;;;17.55;100.00
59103;BME280;43999;51.660;5.616;2022-09-09T10:08:13;100541.09;;;17.54;100.00
59103;BME280;43999;51.660;5.616;2022-09-09T10:11:25;100533.81;;;17.56;100.00
59103;BME280;43999;51.660;5.616;2022-09-09T10:15:11;100538.72;;;17.51;100.00
59103;BME280;43999;51.660;5.616;2022-09-09T10:24:07;100542.22;;;17.62;100.00
59103;BME280;43999;51.660;5.616;2022-09-09T10:27:02;100544.00;;;17.51;100.00
59103;BME280;43999;51.660;5.616;2022-09-09T10:33:04;100552.91;;;17.10;100.00
59103;BME280;43999;51.660;5.616;2022-09-09T10:38:47;100562.91;;;16.85;100.00
59103;BME280;43999;51.660;5.616;2022-09-09T10:41:59;100558.47;;;16.85;100.00
59103;BME280;43999;51.660;5.616;2022-09-09T10:51:09;100561.25;;;17.05;100.00
59103;BME280;43999;51.660;5.616;2022-09-09T10:57:13;100574.88;;;17.00;100.00
59103;BME280;43999;51.660;5.616;2022-09-09T10:59:54;100570.31;;;17.02;100.00
59103;BME280;43999;51.660;5.616;2022-09-09T11:02:28;100568.31;;;16.95;100.00
59103;BME280;43999;51.660;5.616;2022-09-09T11:15:58;100557.91;;;16.61;100.00
59103;BME280;43999;51.660;5.616;2022-09-09T11:18:32;100566.28;;;16.66;100.00
59103;BME280;43999;51.660;5.616;2022-09-09T11:21:06;100568.28;;;16.74;100.00
59103;BME280;43999;51.660;5.616;2022-09-09T11:23:46;100555.63;;;16.77;100.00
59103;BME280;43999;51.660;5.616;2022-09-09T11:29:36;100566.06;;;16.79;100.00
59103;BME280;43999;51.660;5.616;2022-09-09T11:38:30;100563.94;;;16.73;100.00
59103;BME280;43999;51.660;5.616;2022-09-09T11:41:19;100552.53;;;16.72;100.00
59103;BME280;43999;51.660;5.616;2022-09-09T11:43:51;100557.69;;;16.74;100.00
59103;BME280;43999;51.660;5.616;2022-09-09T11:46:21;100558.00;;;16.80;100.00
59103;BME280;43999;51.660;5.616;2022-09-09T11:49:02;100557.88;;;16.82;100.00
59103;BME280;43999;51.660;5.616;2022-09-09T11:51:32;100561.25;;;16.84;100.00
59103;BME280;43999;51.660;5.616;2022-09-09T11:57:00;100549.25;;;17.01;100.00
59103;BME280;43999;51.660;5.616;2022-09-09T11:59:32;100550.97;;;17.12;100.00
59103;BME280;43999;51.660;5.616;2022-09-09T12:02:12;100550.13;;;17.11;100.00
59103;BME280;43999;51.660;5.616;2022-09-09T12:05:09;100549.03;;;17.14;100.00
59103;BME280;43999;51.660;5.616;2022-09-09T12:08:01;100543.03;;;17.12;100.00
59103;BME280;43999;51.660;5.616;2022-09-09T12:10:32;100552.78;;;17.11;100.00
59103;BME280;43999;51.660;5.616;2022-09-09T12:13:16;100547.03;;;17.06;100.00
59103;BME280;43999;51.660;5.616;2022-09-09T12:15:54;100553.44;;;17.03;100.00
59103;BME280;43999;51.660;5.616;2022-09-09T12:18:37;100549.91;;;16.93;100.00
59103;BME280;43999;51.660;5.616;2022-09-09T12:24:11;100547.06;;;17.16;100.00
59103;BME280;43999;51.660;5.616;2022-09-09T12:29:59;100555.13;;;17.35;100.00
59103;BME280;43999;51.660;5.616;2022-09-09T12:32:30;100540.66;;;17.49;100.00
59103;BME280;43999;51.660;5.616;2022-09-09T12:35:11;100543.06;;;17.72;100.00
59103;BME280;43999;51.660;5.616;2022-09-09T12:37:58;100542.56;;;17.88;100.00
59103;BME280;43999;51.660;5.616;2022-09-09T12:40:30;100538.28;;;18.06;100.00
59103;BME280;43999;51.660;5.616;2022-09-09T12:43:16;100544.56;;;18.15;100.00
59103;BME280;43999;51.660;5.616;2022-09-09T12:45:49;100537.00;;;18.10;100.00
59103;BME280;43999;51.660;5.616;2022-09-09T12:48:29;100539.09;;;18.17;100.00
59103;BME280;43999;51.660;5.616;2022-09-09T12:51:28;100530.19;;;18.27;100.00
59103;BME280;43999;51.660;5.616;2022-09-09T12:53:58;100527.41;;;18.39;100.00
59103;BME280;43999;51.660;5.616;2022-09-09T12:56:29;100524.00;;;18.56;100.00
59103;BME280;43999;51.660;5.616;2022-09-09T12:58:58;100521.94;;;18.50;100.00
59103;BME280;43999;51.660;5.616;2022-09-09T13:01:31;100524.31;;;18.43;100.00
59103;BME280;43999;51.660;5.616;2022-09-09T13:04:02;100527.69;;;18.36;100.00
59103;BME280;43999;51.660;5.616;2022-09-09T13:06:48;100519.44;;;18.29;100.00
59103;BME280;43999;51.660;5.616;2022-09-09T13:09:18;100517.34;;;18.23;100.00
59103;BME280;43999;51.660;5.616;2022-09-09T13:11:52;100531.16;;;18.17;100.00
59103;BME280;43999;51.660;5.616;2022-09-09T13:14:33;100533.13;;;18.05;100.00
59103;BME280;43999;51.660;5.616;2022-09-09T13:17:05;100529.28;;;17.78;100.00
59103;BME280;43999;51.660;5.616;2022-09-09T13:19:37;100526.28;;;17.42;100.00
59103;BME280;43999;51.660;5.616;2022-09-09T13:22:12;100532.13;;;17.05;100.00
59103;BME280;43999;51.660;5.616;2022-09-09T13:24:42;100541.56;;;16.77;100.00
59103;BME280;43999;51.660;5.616;2022-09-09T13:29:56;100546.34;;;16.41;100.00
59103;BME280;43999;51.660;5.616;2022-09-09T13:32:26;100541.56;;;16.35;100.00
59103;BME280;43999;51.660;5.616;2022-09-09T13:34:58;100533.25;;;16.39;100.00
59103;BME280;43999;51.660;5.616;2022-09-09T13:37:36;100519.94;;;16.51;100.00
59103;BME280;43999;51.660;5.616;2022-09-09T13:40:05;100522.66;;;16.60;100.00
59103;BME280;43999;51.660;5.616;2022-09-09T13:42:44;100522.22;;;16.76;100.00
59103;BME280;43999;51.660;5.616;2022-09-09T13:45:16;100514.50;;;16.94;100.00
59103;BME280;43999;51.660;5.616;2022-09-09T13:47:49;100511.41;;;17.10;100.00
59103;BME280;43999;51.660;5.616;2022-09-09T13:50:21;100503.91;;;17.25;100.00
59103;BME280;43999;51.660;5.616;2022-09-09T13:52:57;100506.31;;;17.38;100.00
59103;BME280;43999;51.660;5.616;2022-09-09T13:55:27;100511.06;;;17.44;100.00
59103;BME280;43999;51.660;5.616;2022-09-09T13:57:57;100506.50;;;17.46;100.00
59103;BME280;43999;51.660;5.616;2022-09-09T14:00:32;100502.50;;;17.62;100.00
59103;BME280;43999;51.660;5.616;2022-09-09T14:03:01;100507.66;;;17.83;100.00
59103;BME280;43999;51.660;5.616;2022-09-09T14:05:31;100502.16;;;17.96;100.00
59103;BME280;43999;51.660;5.616;2022-09-09T14:07:59;100500.31;;;18.06;100.00
59103;BME280;43999;51.660;5.616;2022-09-09T14:10:30;100501.56;;;18.12;100.00
59103;BME280;43999;51.660;5.616;2022-09-09T14:12:58;100508.69;;;18.21;100.00
59103;BME280;43999;51.660;5.616;2022-09-09T14:15:25;100504.66;;;18.26;100.00
59103;BME280;43999;51.660;5.616;2022-09-09T14:17:53;100502.69;;;18.28;100.00
59103;BME280;43999;51.660;5.616;2022-09-09T14:20:21;100500.31;;;18.25;100.00
59103;BME280;43999;51.660;5.616;2022-09-09T14:22:48;100499.91;;;18.20;100.00
59103;BME280;43999;51.660;5.616;2022-09-09T14:25:15;100491.97;;;18.20;100.00
59103;BME280;43999;51.660;5.616;2022-09-09T14:27:42;100498.66;;;18.15;100.00
59103;BME280;43999;51.660;5.616;2022-09-09T14:30:10;100501.97;;;18.17;100.00
59103;BME280;43999;51.660;5.616;2022-09-09T14:32:37;100495.72;;;18.37;100.00
59103;BME280;43999;51.660;5.616;2022-09-09T14:35:05;100497.72;;;18.63;100.00
59103;BME280;43999;51.660;5.616;2022-09-09T14:37:32;100503.44;;;18.68;100.00
59103;BME280;43999;51.660;5.616;2022-09-09T14:39:59;100499.97;;;18.68;100.00
59103;BME280;43999;51.660;5.616;2022-09-09T14:42:27;100495.63;;;18.67;100.00
59103;BME280;43999;51.660;5.616;2022-09-09T14:44:56;100495.75;;;18.75;100.00
59103;BME280;43999;51.660;5.616;2022-09-09T14:47:23;100501.34;;;18.72;100.00
59103;BME280;43999;51.660;5.616;2022-09-09T14:49:50;100498.44;;;19.12;100.00
59103;BME280;43999;51.660;5.616;2022-09-09T14:52:17;100497.13;;;19.26;100.00
59103;BME280;43999;51.660;5.616;2022-09-09T14:54:44;100502.03;;;19.21;100.00
59103;BME280;43999;51.660;5.616;2022-09-09T14:57:12;100499.97;;;19.15;100.00
59103;BME280;43999;51.660;5.616;2022-09-09T14:59:39;100499.25;;;19.13;100.00
59103;BME280;43999;51.660;5.616;2022-09-09T15:02:08;100491.88;;;19.07;100.00
59103;BME280;43999;51.660;5.616;2022-09-09T15:04:37;100492.75;;;18.97;100.00